Time;durP1;ratioP1;P1;durP2;ratioP2;P2;SDS_P1;SDS_P2;PMS_P1;PMS_P2;Temp;Humidity;BMP_temperature;BMP_pressure;BME280_temperature;BME280_humidity;BME280_pressure;Samples;Min_cycle;Max_cycle;Signal;HPM_P1;HPM_P2
2023/05/05 00:01:12;;;;;;;11.30;9.45;;;;;;;18.99;56.77;101176.69;3609578;39;20054;-67
2023/05/05 00:03:38;;;;;;;10.93;9.63;;;;;;;18.89;56.84;101184.84;3608987;39;20183;-67
2023/05/05 00:06:04;;;;;;;10.98;9.07;;;;;;;18.83;57.76;101179.97;3607458;39;20404;-66
2023/05/05 00:08:30;;;;;;;10.32;9.18;;;;;;;18.77;57.58;101183.25;3608738;39;20377;-66
2023/05/05 00:10:56;;;;;;;12.05;9.25;;;;;;;18.69;58.51;101189.38;3609059;39;20055;-66
2023/05/05 00:13:23;;;;;;;10.85;9.13;;;;;;;18.64;58.19;101180.75;3609248;39;20060;-67
2023/05/05 00:15:52;;;;;;;12.05;9.90;;;;;;;18.57;59.40;101187.75;3610263;39;20062;-67
2023/05/05 00:18:19;;;;;;;10.85;9.70;;;;;;;18.24;59.46;101139.94;3608992;39;20059;-66
2023/05/05 00:20:46;;;;;;;14.25;9.80;;;;;;;18.51;59.56;101199.19;3608569;39;20046;-66
2023/05/05 00:23:12;;;;;;;11.77;10.15;;;;;;;18.46;60.23;101201.47;3608657;39;20054;-68
2023/05/05 00:25:38;;;;;;;14.77;10.13;;;;;;;18.30;60.49;101175.63;3607963;39;20043;-66
2023/05/05 00:28:04;;;;;;;14.27;10.82;;;;;;;18.39;61.17;101203.00;3605603;39;20145;-67
2023/05/05 00:30:29;;;;;;;18.48;11.32;;;;;;;18.37;60.94;101202.28;3610432;39;20069;-66
2023/05/05 00:32:56;;;;;;;13.20;11.27;;;;;;;18.30;61.10;101191.94;3609107;39;20051;-66
2023/05/05 00:35:22;;;;;;;13.02;11.73;;;;;;;18.23;61.53;101185.31;3608841;39;20293;-66
2023/05/05 00:37:48;;;;;;;14.23;11.80;;;;;;;18.18;61.78;101186.72;3607435;39;20050;-67
2023/05/05 00:40:14;;;;;;;13.30;11.88;;;;;;;18.19;62.21;101181.13;3607213;39;20412;-66
2023/05/05 00:42:41;;;;;;;14.52;11.48;;;;;;;18.15;62.73;101198.75;3608067;39;20078;-66
2023/05/05 00:45:09;;;;;;;14.48;12.32;;;;;;;18.13;62.90;101198.00;3606905;39;20054;-66
2023/05/05 00:47:35;;;;;;;13.73;12.30;;;;;;;17.85;63.18;101159.59;3610283;39;20091;-67
2023/05/05 00:50:08;;;;;;;13.02;11.63;;;;;;;18.07;63.53;101203.97;3607293;39;20081;-67
2023/05/05 00:52:37;;;;;;;14.50;12.40;;;;;;;18.04;63.65;101207.81;3608398;39;20121;-67
2023/05/05 00:55:04;;;;;;;17.50;12.73;;;;;;;18.01;64.20;101204.50;3606003;39;20059;-67
2023/05/05 00:57:31;;;;;;;15.60;12.57;;;;;;;17.76;63.96;101171.28;3606385;39;20121;-67
2023/05/05 00:59:59;;;;;;;15.13;12.85;;;;;;;17.92;63.68;101205.31;3608589;39;20112;-66
2023/05/05 01:02:26;;;;;;;16.33;12.98;;;;;;;17.88;64.03;101196.56;3608141;39;20051;-66
2023/05/05 01:04:54;;;;;;;16.40;12.68;;;;;;;17.84;64.43;101195.09;3608346;39;20058;-67
2023/05/05 01:08:01;;;;;;;17.05;13.40;;;;;;;17.76;64.58;101192.16;3606935;39;20460;-67
2023/05/05 01:10:53;;;;;;;16.38;13.80;;;;;;;17.72;64.44;101207.88;3607349;39;20058;-67
2023/05/05 01:13:45;;;;;;;17.75;13.40;;;;;;;17.65;64.42;101201.22;3607891;39;20071;-67
2023/05/05 01:16:26;;;;;;;17.10;13.70;;;;;;;17.61;65.39;101207.94;3607376;39;20791;-67
2023/05/05 01:19:44;;;;;;;17.70;13.93;;;;;;;17.60;65.28;101207.09;3610215;39;20470;-67
2023/05/05 01:22:17;;;;;;;16.15;14.00;;;;;;;17.57;65.86;101209.16;3609933;39;20074;-67
2023/05/05 01:25:02;;;;;;;16.75;14.45;;;;;;;17.62;65.94;101206.94;3610067;39;20135;-66
2023/05/05 01:28:02;;;;;;;16.90;13.98;;;;;;;17.64;65.82;101194.09;3609425;39;20058;-66
2023/05/05 01:30:58;;;;;;;17.15;14.45;;;;;;;17.64;65.36;101186.78;3613336;39;20063;-67
2023/05/05 01:33:35;;;;;;;18.77;13.88;;;;;;;17.63;66.24;101186.91;3611384;39;20088;-67
2023/05/05 01:36:14;;;;;;;15.80;13.70;;;;;;;17.51;66.05;101191.56;3610526;39;20412;-67
2023/05/05 01:38:45;;;;;;;15.18;13.27;;;;;;;17.56;66.42;101204.75;3601669;39;20051;-67
2023/05/05 01:41:23;;;;;;;16.25;13.35;;;;;;;17.54;66.38;101199.44;3610924;39;20105;-66
2023/05/05 01:43:53;;;;;;;17.10;13.38;;;;;;;17.47;65.97;101187.34;3611214;39;20054;-67
2023/05/05 01:46:23;;;;;;;14.68;13.18;;;;;;;17.49;66.31;101189.97;3609350;39;20091;-66
2023/05/05 01:48:54;;;;;;;16.30;14.40;;;;;;;17.39;66.93;101188.00;3612175;39;20047;-67
2023/05/05 01:51:26;;;;;;;18.20;14.05;;;;;;;17.33;66.84;101196.69;3602927;39;20067;-66
2023/05/05 01:53:56;;;;;;;15.30;13.27;;;;;;;17.26;67.16;101200.91;3610972;39;20395;-66
2023/05/05 01:56:25;;;;;;;17.42;14.68;;;;;;;17.22;67.60;101199.47;3605366;39;20082;-67
2023/05/05 01:58:54;;;;;;;16.27;14.27;;;;;;;17.17;67.68;101198.97;3609493;39;20058;-67
2023/05/05 02:01:24;;;;;;;16.65;14.60;;;;;;;17.03;68.15;101200.13;3608303;39;20052;-67
2023/05/05 02:03:54;;;;;;;17.52;15.10;;;;;;;16.98;67.77;101202.34;3608726;39;20086;-66
2023/05/05 02:06:22;;;;;;;17.65;15.27;;;;;;;16.88;68.54;101213.13;3605158;39;20051;-67
2023/05/05 02:08:51;;;;;;;19.50;14.73;;;;;;;16.79;69.32;101215.72;3610876;39;20407;-67
2023/05/05 02:11:20;;;;;;;17.60;14.65;;;;;;;15.93;69.38;101090.56;3610673;39;20077;-67
2023/05/05 02:13:49;;;;;;;19.13;15.00;;;;;;;16.60;70.09;101210.91;3609368;39;20047;-67
2023/05/05 02:16:19;;;;;;;17.67;15.35;;;;;;;16.52;70.10;101216.94;3610039;39;20065;-66
2023/05/05 02:18:47;;;;;;;20.00;15.65;;;;;;;16.43;70.54;101223.97;3607702;39;20057;-67
2023/05/05 02:21:16;;;;;;;18.33;15.05;;;;;;;16.16;70.58;101180.06;3606280;39;20067;-66
2023/05/05 02:23:44;;;;;;;17.65;15.45;;;;;;;16.25;70.89;101225.44;3609035;39;20073;-66
2023/05/05 02:26:15;;;;;;;17.73;15.40;;;;;;;16.14;70.97;101228.13;3610906;39;20066;-67
2023/05/05 02:29:01;;;;;;;19.17;16.13;;;;;;;16.07;71.89;101229.59;3611353;39;20077;-68
2023/05/05 02:31:29;;;;;;;22.67;15.93;;;;;;;15.61;71.71;101166.25;3609728;39;20051;-67
2023/05/05 02:34:00;;;;;;;18.90;16.10;;;;;;;15.92;72.54;101239.78;3609112;39;20063;-67
2023/05/05 02:36:32;;;;;;;19.10;16.92;;;;;;;15.84;72.17;101236.81;3607217;39;20055;-67
2023/05/05 02:39:09;;;;;;;18.67;15.82;;;;;;;15.82;72.09;101241.50;3608627;39;20087;-67
2023/05/05 02:41:39;;;;;;;17.95;16.08;;;;;;;15.78;72.37;101238.16;3609260;39;20047;-67
2023/05/05 02:44:09;;;;;;;18.63;16.50;;;;;;;15.73;71.90;101248.47;3607575;39;20074;-67
2023/05/05 02:46:37;;;;;;;18.48;16.42;;;;;;;15.69;72.01;101255.13;3612171;39;20409;-67
2023/05/05 02:49:03;;;;;;;18.27;15.45;;;;;;;15.66;72.27;101249.91;3597719;39;20100;-66
2023/05/05 02:51:28;;;;;;;18.42;15.30;;;;;;;15.63;71.82;101252.84;3606938;39;20403;-67
2023/05/05 02:53:55;;;;;;;19.35;15.63;;;;;;;15.60;72.02;101247.66;3608325;39;20420;-67
2023/05/05 02:56:41;;;;;;;17.30;15.50;;;;;;;15.56;71.69;101249.75;3609420;39;20063;-67
2023/05/05 02:59:40;;;;;;;18.30;15.95;;;;;;;15.53;71.73;101250.84;3608750;39;20047;-66
2023/05/05 03:02:30;;;;;;;17.17;14.48;;;;;;;15.49;71.64;101241.22;3610160;39;20053;-67
2023/05/05 03:05:17;;;;;;;16.90;13.82;;;;;;;15.42;71.54;101237.25;3597283;39;20051;-67
2023/05/05 03:08:02;;;;;;;19.88;14.30;;;;;;;15.42;71.82;101241.81;3606288;39;20055;-67
2023/05/05 03:10:38;;;;;;;16.40;14.65;;;;;;;15.37;72.02;101238.56;3608970;39;20058;-67
2023/05/05 03:13:10;;;;;;;17.10;14.82;;;;;;;15.24;72.10;101222.38;3608586;39;20368;-67
2023/05/05 03:15:47;;;;;;;18.08;15.15;;;;;;;15.19;72.33;101229.97;3610713;39;20051;-66
2023/05/05 03:18:16;;;;;;;17.10;14.60;;;;;;;15.28;72.53;101250.97;3606366;39;20070;-67
2023/05/05 03:20:42;;;;;;;17.50;15.45;;;;;;;15.25;72.50;101243.06;3608431;39;20297;-67
2023/05/05 03:23:09;;;;;;;16.58;14.30;;;;;;;15.19;72.48;101241.69;3607676;39;20051;-66
2023/05/05 03:25:45;;;;;;;18.42;14.55;;;;;;;15.20;73.13;101258.81;3598801;39;20055;-67
2023/05/05 03:28:11;;;;;;;19.95;15.13;;;;;;;15.19;72.72;101262.47;3608544;39;20163;-66
2023/05/05 03:30:37;;;;;;;17.73;14.80;;;;;;;15.17;72.59;101264.44;3610817;39;20063;-67
2023/05/05 03:33:02;;;;;;;19.73;15.25;;;;;;;15.14;72.99;101262.84;3610107;39;20475;-67
2023/05/05 03:35:28;;;;;;;17.88;14.85;;;;;;;15.11;73.00;101265.78;3608957;39;20059;-67
2023/05/05 03:37:56;;;;;;;16.98;15.18;;;;;;;15.06;73.37;101260.69;3605809;39;20099;-66
2023/05/05 03:40:22;;;;;;;17.67;15.65;;;;;;;14.78;73.41;101209.53;3606399;39;20341;-67
2023/05/05 03:42:48;;;;;;;18.23;15.88;;;;;;;14.88;73.80;101243.09;3608433;39;20058;-67
2023/05/05 03:45:14;;;;;;;22.60;16.25;;;;;;;14.93;73.49;101259.00;3607693;39;20059;-66
2023/05/05 03:47:39;;;;;;;18.85;14.95;;;;;;;14.88;73.84;101264.75;3596302;39;20051;-67
2023/05/05 03:50:06;;;;;;;17.02;15.23;;;;;;;14.84;73.88;101263.22;3604717;39;22271;-66
2023/05/05 03:52:31;;;;;;;17.92;15.57;;;;;;;14.78;74.21;101256.44;3608825;39;20393;-66
2023/05/05 03:54:58;;;;;;;17.17;15.32;;;;;;;14.75;74.44;101266.63;3607967;39;20126;-67
2023/05/05 03:57:27;;;;;;;17.55;15.25;;;;;;;14.74;74.61;101273.84;3607343;39;20051;-67
2023/05/05 03:59:53;;;;;;;16.67;13.57;;;;;;;14.71;74.11;101267.81;3607232;39;20053;-67
2023/05/05 04:02:19;;;;;;;17.45;14.02;;;;;;;14.62;74.23;101270.22;3609472;39;20090;-67
2023/05/05 04:04:45;;;;;;;15.82;14.05;;;;;;;14.66;74.34;101272.69;3610260;39;20063;-67
2023/05/05 04:07:10;;;;;;;16.52;13.82;;;;;;;14.63;74.62;101277.34;3606606;39;20074;-66
2023/05/05 04:09:43;;;;;;;15.70;13.27;;;;;;;14.59;74.37;101275.84;3608201;39;20067;-66
2023/05/05 04:12:10;;;;;;;15.57;13.97;;;;;;;14.62;73.96;101281.03;3610657;39;20050;-66
2023/05/05 04:14:36;;;;;;;16.05;13.63;;;;;;;14.62;73.75;101286.44;3608838;39;20341;-66
2023/05/05 04:17:02;;;;;;;16.58;13.18;;;;;;;14.59;73.83;101286.66;3598940;39;20043;-66
2023/05/05 04:19:27;;;;;;;13.50;12.13;;;;;;;14.57;74.05;101287.75;3606491;39;20062;-66
2023/05/05 04:21:53;;;;;;;14.75;12.43;;;;;;;14.57;73.67;101285.91;3607845;39;20063;-66
2023/05/05 04:24:23;;;;;;;16.23;12.90;;;;;;;14.56;73.61;101286.88;3607162;39;20071;-67
2023/05/05 04:26:50;;;;;;;16.25;12.48;;;;;;;14.55;73.71;101285.13;3607039;39;20077;-66
2023/05/05 04:29:16;;;;;;;15.57;12.43;;;;;;;14.54;73.80;101287.97;3597277;39;20055;-66
2023/05/05 04:31:42;;;;;;;16.40;13.02;;;;;;;14.52;73.88;101288.06;3606760;39;20095;-66
2023/05/05 04:34:08;;;;;;;13.90;12.05;;;;;;;14.53;73.52;101291.66;3599136;39;20051;-66
2023/05/05 04:36:33;;;;;;;15.73;12.50;;;;;;;14.53;74.09;101297.91;3608571;39;20046;-66
2023/05/05 04:38:59;;;;;;;14.98;12.77;;;;;;;14.55;73.45;101290.53;3608912;39;20057;-66
2023/05/05 04:41:26;;;;;;;13.70;12.10;;;;;;;14.45;73.67;101278.63;3609157;39;20057;-66
2023/05/05 04:43:53;;;;;;;16.20;11.93;;;;;;;14.56;73.46;101294.13;3608713;39;20083;-66
2023/05/05 04:46:19;;;;;;;14.52;12.05;;;;;;;14.56;73.40;101294.13;3607215;39;20370;-66
2023/05/05 04:48:45;;;;;;;14.82;11.73;;;;;;;14.57;73.33;101306.69;3605298;39;20059;-66
2023/05/05 04:51:11;;;;;;;15.90;12.48;;;;;;;14.49;73.74;101287.38;3607876;39;20070;-66
2023/05/05 04:53:37;;;;;;;14.25;12.68;;;;;;;14.50;73.79;101286.44;3606697;39;20047;-67
2023/05/05 04:56:03;;;;;;;14.07;12.45;;;;;;;14.57;73.62;101288.59;3607186;39;20359;-66
2023/05/05 04:58:30;;;;;;;14.05;11.95;;;;;;;14.32;73.47;101240.75;3609538;39;20059;-66
2023/05/05 05:00:55;;;;;;;14.07;12.25;;;;;;;14.59;73.40;101283.97;3607879;39;20055;-67
2023/05/05 05:03:21;;;;;;;14.45;12.57;;;;;;;14.44;73.29;101252.56;3595753;39;20604;-66
2023/05/05 05:05:47;;;;;;;13.95;12.55;;;;;;;14.62;72.78;101283.75;3608343;39;20065;-66
2023/05/05 05:08:16;;;;;;;14.43;12.50;;;;;;;14.62;73.08;101275.63;3608671;39;21186;-66
2023/05/05 05:10:43;;;;;;;14.05;12.55;;;;;;;14.69;72.65;101277.91;3610764;39;20066;-66
2023/05/05 05:13:09;;;;;;;13.73;12.30;;;;;;;14.73;72.51;101276.69;3609395;39;20066;-67
2023/05/05 05:15:38;;;;;;;13.43;12.13;;;;;;;14.76;71.94;101271.06;3608364;39;20143;-66
2023/05/05 05:18:04;;;;;;;15.68;12.82;;;;;;;14.77;72.15;101267.38;3608286;39;20063;-67
2023/05/05 05:20:30;;;;;;;14.60;13.07;;;;;;;14.83;71.86;101277.75;3610425;39;20047;-66
2023/05/05 05:23:03;;;;;;;15.57;12.48;;;;;;;14.89;72.11;101277.31;3608944;39;20066;-67
2023/05/05 05:25:28;;;;;;;16.15;12.50;;;;;;;14.94;71.86;101277.84;3609102;39;20046;-66
2023/05/05 05:27:54;;;;;;;16.98;12.60;;;;;;;14.98;71.63;101273.94;3608895;39;20103;-66
2023/05/05 05:30:20;;;;;;;16.85;12.57;;;;;;;15.05;71.82;101277.91;3607678;39;20051;-66
2023/05/05 05:32:45;;;;;;;14.07;12.60;;;;;;;15.09;71.65;101276.69;3608618;39;20132;-68
2023/05/05 05:35:11;;;;;;;15.20;12.63;;;;;;;14.82;71.43;101227.31;3607185;39;20059;-68
2023/05/05 05:37:36;;;;;;;18.42;13.05;;;;;;;15.15;71.52;101288.06;3609705;39;20058;-68
2023/05/05 05:40:05;;;;;;;16.67;13.45;;;;;;;15.17;71.97;101289.69;3608405;39;21525;-68
2023/05/05 05:42:31;;;;;;;15.18;12.43;;;;;;;14.93;71.97;101262.56;3607956;39;20143;-68
2023/05/05 05:44:59;;;;;;;14.25;12.48;;;;;;;15.15;71.70;101305.16;3610988;39;20047;-68
2023/05/05 05:47:25;;;;;;;16.42;13.85;;;;;;;15.23;71.71;101323.59;3609339;39;20087;-68
2023/05/05 05:49:51;;;;;;;15.02;13.30;;;;;;;15.23;71.81;101339.84;3609969;39;20058;-68
2023/05/05 05:52:16;;;;;;;14.55;12.05;;;;;;;15.13;71.19;101306.25;3609672;39;20047;-68
2023/05/05 05:54:42;;;;;;;13.73;12.13;;;;;;;15.37;70.98;101352.34;3606961;39;20581;-68
2023/05/05 05:57:07;;;;;;;13.27;11.90;;;;;;;15.43;70.52;101352.75;3608040;39;20047;-68
2023/05/05 05:59:33;;;;;;;13.88;12.18;;;;;;;15.06;70.74;101290.50;3609548;39;20046;-68
2023/05/05 06:02:00;;;;;;;12.90;11.50;;;;;;;15.58;70.39;101358.03;3610961;39;20398;-67
2023/05/05 06:04:25;;;;;;;13.82;11.93;;;;;;;15.67;70.41;101365.53;3607940;39;20165;-68
2023/05/05 06:06:51;;;;;;;13.18;11.70;;;;;;;15.75;69.93;101366.66;3609227;39;20540;-68
2023/05/05 06:09:17;;;;;;;13.68;11.93;;;;;;;15.81;70.04;101365.34;3608123;39;20050;-69
2023/05/05 06:11:42;;;;;;;12.85;11.55;;;;;;;15.88;69.93;101355.75;3598293;39;20056;-68
2023/05/05 06:14:08;;;;;;;14.18;11.95;;;;;;;16.07;70.01;101367.91;3608554;39;20054;-68
2023/05/05 06:16:33;;;;;;;12.38;11.18;;;;;;;16.19;69.80;101366.97;3610277;39;20070;-68
2023/05/05 06:18:59;;;;;;;13.05;11.68;;;;;;;16.35;69.28;101375.66;3609200;39;20354;-68
2023/05/05 06:21:26;;;;;;;12.90;11.55;;;;;;;16.50;69.03;101389.03;3606667;39;20327;-68
2023/05/05 06:23:52;;;;;;;14.60;12.30;;;;;;;16.62;68.70;101390.81;3600820;39;20043;-66
2023/05/05 06:26:17;;;;;;;16.73;12.27;;;;;;;16.77;68.23;101384.16;3610652;39;20361;-65
2023/05/05 06:28:43;;;;;;;12.00;10.75;;;;;;;16.93;68.44;101383.81;3608814;39;20128;-66
2023/05/05 06:31:09;;;;;;;14.77;10.77;;;;;;;17.09;67.83;101378.03;3607806;39;20293;-67
2023/05/05 06:33:34;;;;;;;13.15;10.48;;;;;;;17.23;67.23;101363.34;3609035;39;20066;-66
2023/05/05 06:36:00;;;;;;;11.70;9.82;;;;;;;17.44;66.14;101377.88;3610991;39;20047;-66
2023/05/05 06:38:25;;;;;;;15.55;11.45;;;;;;;17.60;66.19;101362.03;3610880;39;20046;-68
2023/05/05 06:40:51;;;;;;;14.05;11.20;;;;;;;17.76;65.66;101367.06;3609060;39;20052;-69
2023/05/05 06:43:17;;;;;;;14.15;10.93;;;;;;;17.93;65.38;101367.53;3610864;39;20059;-66
2023/05/05 06:45:42;;;;;;;15.20;11.00;;;;;;;18.09;64.27;101373.41;3608903;39;20070;-67
2023/05/05 06:48:08;;;;;;;13.02;10.35;;;;;;;18.22;63.44;101375.94;3609439;39;20314;-67
2023/05/05 06:50:34;;;;;;;12.02;10.23;;;;;;;18.33;63.22;101376.75;3607266;39;20066;-67
2023/05/05 06:53:00;;;;;;;11.52;10.13;;;;;;;18.48;63.81;101377.28;3609913;39;20328;-67
2023/05/05 06:55:25;;;;;;;11.02;9.82;;;;;;;18.69;62.27;101381.88;3608075;39;20047;-67
2023/05/05 06:57:51;;;;;;;14.13;10.38;;;;;;;18.69;62.33;101349.19;3609811;39;20136;-67
2023/05/05 07:00:18;;;;;;;11.65;9.90;;;;;;;18.99;60.79;101378.31;3610227;39;20067;-67
2023/05/05 07:02:43;;;;;;;11.27;10.18;;;;;;;19.15;60.66;101384.13;3609485;39;20056;-67
2023/05/05 07:05:09;;;;;;;10.52;9.00;;;;;;;19.29;59.63;101385.66;3610092;39;20054;-67
2023/05/05 07:07:36;;;;;;;12.60;9.40;;;;;;;19.42;59.62;101380.81;3609403;39;20114;-67
2023/05/05 07:10:01;;;;;;;8.63;7.68;;;;;;;19.62;58.64;101395.34;3605007;39;20133;-67
2023/05/05 07:12:32;;;;;;;7.75;6.68;;;;;;;19.82;56.49;101387.22;3607449;39;20066;-67
2023/05/05 07:14:57;;;;;;;9.50;6.95;;;;;;;20.00;55.87;101391.00;3608342;39;20132;-67
2023/05/05 07:17:23;;;;;;;8.80;6.97;;;;;;;20.35;55.73;101400.47;3606604;39;20059;-67
2023/05/05 07:19:50;;;;;;;6.35;5.28;;;;;;;20.56;53.52;101395.75;3609439;39;20069;-67
2023/05/05 07:22:15;;;;;;;6.97;5.15;;;;;;;20.59;52.39;101400.94;3610648;39;20139;-67
2023/05/05 07:24:41;;;;;;;5.68;4.18;;;;;;;20.57;52.46;101400.22;3609514;39;20429;-67
2023/05/05 07:27:07;;;;;;;6.38;4.53;;;;;;;20.58;53.37;101407.41;3610312;39;20123;-67
2023/05/05 07:29:32;;;;;;;7.70;5.60;;;;;;;20.49;53.28;101399.16;3608659;39;20054;-67
2023/05/05 07:31:58;;;;;;;6.57;5.57;;;;;;;20.30;53.01;101397.34;3608492;39;20047;-67
2023/05/05 07:34:23;;;;;;;7.85;5.85;;;;;;;20.24;54.29;101397.91;3608371;39;20065;-67
2023/05/05 07:36:49;;;;;;;8.13;6.00;;;;;;;20.16;54.22;101391.28;3607913;39;20297;-67
2023/05/05 07:39:15;;;;;;;11.18;6.38;;;;;;;20.10;54.42;101397.31;3606812;39;20062;-67
2023/05/05 07:41:41;;;;;;;7.18;5.53;;;;;;;20.03;54.11;101381.66;3600237;39;20070;-67
2023/05/05 07:44:07;;;;;;;7.25;5.55;;;;;;;20.18;54.08;101381.09;3607898;39;20051;-67
2023/05/05 07:46:33;;;;;;;7.80;5.50;;;;;;;20.26;54.47;101372.16;3608224;39;20493;-67
2023/05/05 07:48:58;;;;;;;8.23;5.72;;;;;;;20.38;54.40;101376.47;3609165;39;20093;-67
2023/05/05 07:51:25;;;;;;;8.57;5.70;;;;;;;20.42;54.24;101377.03;3605835;39;21198;-67
2023/05/05 07:53:50;;;;;;;9.25;6.10;;;;;;;20.46;54.46;101375.75;3606517;39;20055;-67
2023/05/05 07:56:16;;;;;;;6.82;5.53;;;;;;;20.49;54.00;101375.47;3606662;39;20161;-67
2023/05/05 07:58:42;;;;;;;5.70;3.97;;;;;;;20.55;52.98;101377.66;3606249;39;20055;-68
2023/05/05 08:01:09;;;;;;;6.53;4.50;;;;;;;20.87;53.28;101373.69;3609047;39;20389;-68
2023/05/05 08:03:35;;;;;;;7.75;5.00;;;;;;;21.18;51.84;101377.00;3607471;39;20371;-68
2023/05/05 08:06:08;;;;;;;7.95;4.32;;;;;;;21.50;51.19;101378.47;3608074;39;20051;-67
2023/05/05 08:08:34;;;;;;;8.38;4.35;;;;;;;21.73;50.44;101378.94;3608480;39;20063;-67
2023/05/05 08:11:00;;;;;;;6.55;4.90;;;;;;;21.76;49.27;101337.56;3607147;39;20641;-68
2023/05/05 08:13:27;;;;;;;5.72;3.85;;;;;;;22.14;47.81;101374.72;3607419;39;20412;-68
2023/05/05 08:15:53;;;;;;;4.57;3.97;;;;;;;22.16;47.96;101377.34;3607181;39;20063;-68
2023/05/05 08:18:19;;;;;;;6.88;4.05;;;;;;;22.28;48.59;101389.78;3609419;39;20058;-67
2023/05/05 08:20:44;;;;;;;6.25;3.80;;;;;;;22.39;48.04;101377.69;3607927;39;20047;-67
2023/05/05 08:23:10;;;;;;;5.35;3.75;;;;;;;22.52;48.06;101389.13;3610784;39;20053;-67
2023/05/05 08:25:35;;;;;;;6.38;4.22;;;;;;;22.54;47.65;101388.97;3597965;39;21752;-67
2023/05/05 08:28:01;;;;;;;6.55;4.22;;;;;;;22.54;47.96;101383.47;3608037;39;20050;-67
2023/05/05 08:30:27;;;;;;;7.72;4.47;;;;;;;22.59;48.82;101386.63;3606075;39;20055;-68
2023/05/05 08:32:52;;;;;;;8.30;5.40;;;;;;;22.45;48.43;101368.84;3606643;39;20074;-67
2023/05/05 08:35:18;;;;;;;7.28;5.47;;;;;;;22.52;49.03;101391.88;3607733;39;20050;-67
2023/05/05 08:37:44;;;;;;;6.43;5.43;;;;;;;22.45;49.85;101391.66;3608325;39;20090;-67
2023/05/05 08:40:13;;;;;;;7.28;5.70;;;;;;;22.11;49.68;101347.66;3610962;39;20063;-67
2023/05/05 08:42:40;;;;;;;8.32;5.00;;;;;;;22.13;48.88;101389.41;3608848;39;20114;-67
2023/05/05 08:45:08;;;;;;;6.53;4.85;;;;;;;22.01;49.10;101388.81;3608095;39;20402;-67
2023/05/05 08:47:36;;;;;;;4.90;4.30;;;;;;;21.95;49.46;101392.19;3608588;39;20059;-67
2023/05/05 08:50:04;;;;;;;4.57;3.97;;;;;;;21.87;49.20;101383.00;3608791;39;20063;-67
2023/05/05 08:52:39;;;;;;;5.00;3.53;;;;;;;21.72;47.24;101382.66;3608423;39;20054;-67
2023/05/05 08:55:25;;;;;;;3.08;2.20;;;;;;;21.68;47.38;101395.78;3607729;39;20087;-67
2023/05/05 08:57:55;;;;;;;3.53;2.40;;;;;;;21.63;47.94;101398.16;3609683;39;20054;-67
2023/05/05 09:00:25;;;;;;;5.13;3.35;;;;;;;21.67;48.72;101391.34;3608424;39;20367;-66
2023/05/05 09:02:55;;;;;;;5.18;3.47;;;;;;;21.68;49.89;101392.19;3608794;39;20059;-66
2023/05/05 09:05:21;;;;;;;4.25;3.00;;;;;;;21.68;48.35;101392.19;3608711;39;20608;-66
2023/05/05 09:07:47;;;;;;;4.97;2.78;;;;;;;21.73;47.95;101390.75;3611141;39;20055;-66
2023/05/05 09:10:13;;;;;;;5.00;3.00;;;;;;;21.76;48.03;101378.63;3610677;39;20055;-67
2023/05/05 09:12:40;;;;;;;5.50;2.53;;;;;;;21.95;47.35;101391.31;3607669;39;20067;-67
2023/05/05 09:15:13;;;;;;;3.55;2.28;;;;;;;21.91;45.06;101395.34;3607965;39;20313;-67
2023/05/05 09:17:40;;;;;;;2.67;1.70;;;;;;;21.88;44.89;101390.19;3607996;39;22100;-67
2023/05/05 09:20:08;;;;;;;1.88;1.30;;;;;;;21.90;44.87;101389.03;3608406;39;20272;-67
2023/05/05 09:22:40;;;;;;;4.85;3.30;;;;;;;21.96;46.71;101398.50;3609472;39;20063;-67
2023/05/05 09:25:09;;;;;;;3.25;2.80;;;;;;;21.89;46.83;101406.47;3609309;39;20070;-67
2023/05/05 09:27:37;;;;;;;3.88;2.47;;;;;;;21.75;46.04;101401.50;3606162;39;20073;-67
2023/05/05 09:30:05;;;;;;;3.78;2.58;;;;;;;21.75;46.79;101407.00;3610226;39;20495;-68
2023/05/05 09:32:51;;;;;;;4.80;3.40;;;;;;;21.58;46.19;101407.81;3611300;39;20385;-67
2023/05/05 09:35:19;;;;;;;5.60;3.40;;;;;;;21.32;47.25;101386.63;3608704;39;20068;-68
2023/05/05 09:37:45;;;;;;;7.47;4.55;;;;;;;21.35;47.89;101410.97;3608822;39;20052;-68
2023/05/05 09:40:15;;;;;;;6.28;4.55;;;;;;;21.21;48.66;101400.47;3607407;39;20296;-68
2023/05/05 09:42:43;;;;;;;5.97;4.32;;;;;;;21.12;48.71;101404.09;3610283;39;20043;-68
2023/05/05 09:45:17;;;;;;;5.85;4.35;;;;;;;21.02;49.19;101395.94;3609649;39;20041;-68
2023/05/05 09:47:44;;;;;;;12.18;4.65;;;;;;;20.91;50.05;101396.97;3609672;39;20069;-68
2023/05/05 09:50:17;;;;;;;6.93;4.93;;;;;;;20.88;51.61;101394.53;3612368;39;20067;-68
2023/05/05 09:52:57;;;;;;;8.17;4.40;;;;;;;20.86;51.18;101402.03;3614568;39;20286;-68
2023/05/05 09:55:24;;;;;;;5.22;3.67;;;;;;;20.74;52.28;101401.34;3608166;39;20090;-67
2023/05/05 09:57:50;;;;;;;4.40;3.65;;;;;;;20.76;52.62;101390.25;3606118;39;20874;-66
2023/05/05 10:00:17;;;;;;;5.07;2.92;;;;;;;20.76;51.73;101396.56;3605537;39;20066;-66
2023/05/05 10:02:42;;;;;;;3.80;2.78;;;;;;;20.75;51.32;101402.22;3609868;39;20279;-66
2023/05/05 10:05:17;;;;;;;6.47;3.20;;;;;;;20.75;52.11;101394.00;3607576;39;20062;-66
2023/05/05 10:07:45;;;;;;;4.20;3.33;;;;;;;20.66;52.34;101395.75;3607595;39;20054;-66
2023/05/05 10:10:16;;;;;;;6.78;3.67;;;;;;;20.58;52.93;101396.50;3609994;39;20047;-66
2023/05/05 10:12:45;;;;;;;6.40;3.70;;;;;;;20.52;53.07;101386.16;3606036;39;20386;-66
2023/05/05 10:15:14;;;;;;;7.20;3.58;;;;;;;20.47;53.44;101396.59;3611733;39;20057;-66
2023/05/05 10:17:50;;;;;;;5.68;3.25;;;;;;;20.37;53.30;101391.16;3608728;39;20233;-66
2023/05/05 10:20:18;;;;;;;6.53;2.88;;;;;;;20.27;52.85;101395.75;3611004;39;20334;-66
2023/05/05 10:22:51;;;;;;;6.03;2.90;;;;;;;20.20;53.47;101394.59;3613243;39;20058;-66
2023/05/05 10:25:32;;;;;;;5.20;3.15;;;;;;;20.12;55.34;101392.59;3609551;39;20055;-65
2023/05/05 10:28:02;;;;;;;7.05;3.63;;;;;;;20.05;55.77;101394.16;3605805;39;20051;-65
2023/05/05 10:30:38;;;;;;;4.70;3.88;;;;;;;19.99;56.80;101391.16;3607448;39;20082;-65
2023/05/05 10:33:13;;;;;;;6.78;4.22;;;;;;;19.92;57.32;101397.19;3608446;39;20394;-66
2023/05/05 10:35:44;;;;;;;6.90;3.97;;;;;;;19.86;58.15;101399.59;3606376;39;20090;-67
2023/05/05 10:38:11;;;;;;;7.60;3.78;;;;;;;19.78;59.28;101404.91;3610506;39;20061;-65
2023/05/05 10:40:44;;;;;;;7.97;5.43;;;;;;;19.60;60.75;101400.09;3608190;39;20066;-65
2023/05/05 10:43:10;;;;;;;9.60;6.37;;;;;;;19.50;62.29;101410.09;3609936;39;20298;-65
2023/05/05 10:45:38;;;;;;;6.38;5.55;;;;;;;19.39;64.61;101408.34;3606960;39;20436;-65
2023/05/05 10:48:11;;;;;;;11.27;6.55;;;;;;;19.36;65.17;101415.94;3610629;39;20090;-66
2023/05/05 10:51:24;;;;;;;;;;;;;;;19.13;67.13;101418.00;3608958;39;20055;-64
2023/05/05 10:54:09;;;;;;;10.93;5.40;;;;;;;18.93;67.85;101422.47;3599486;39;19950;-66
2023/05/05 10:56:39;;;;;;;11.80;5.18;;;;;;;18.67;69.54;101411.94;3606756;39;20063;-66
2023/05/05 10:59:36;;;;;;;9.68;5.30;;;;;;;18.40;71.77;101411.63;3606197;39;20050;-66
2023/05/05 11:02:22;;;;;;;11.23;6.53;;;;;;;18.16;73.65;101420.88;3608204;39;20050;-66
2023/05/05 11:05:20;;;;;;;11.27;7.78;;;;;;;17.97;76.01;101421.53;3607432;39;20088;-66
2023/05/05 11:07:51;;;;;;;13.13;8.45;;;;;;;17.84;78.08;101432.59;3609258;39;20047;-67
2023/05/05 11:10:19;;;;;;;15.38;8.95;;;;;;;17.57;79.42;101405.78;3605627;39;20143;-66
2023/05/05 11:12:50;;;;;;;13.15;8.68;;;;;;;17.64;80.04;101436.06;3605188;39;20059;-64
2023/05/05 11:15:25;;;;;;;14.02;8.40;;;;;;;17.58;81.86;101428.41;3606676;39;20047;-65
2023/05/05 11:17:59;;;;;;;14.07;8.93;;;;;;;17.58;83.43;101433.84;3608811;39;20266;-65
2023/05/05 11:20:39;;;;;;;13.55;8.95;;;;;;;17.55;83.17;101429.50;3605033;39;20047;-65
2023/05/05 11:23:05;;;;;;;13.60;8.55;;;;;;;17.53;82.72;101426.03;3607787;39;20042;-65
2023/05/05 11:25:37;;;;;;;13.23;8.60;;;;;;;17.52;82.42;101431.63;3608283;39;20057;-66